Time;durP1;ratioP1;P1;durP2;ratioP2;P2;SDS_P1;SDS_P2;PMS_P1;PMS_P2;Temp;Humidity;BMP_temperature;BMP_pressure;BME280_temperature;BME280_humidity;BME280_pressure;Samples;Min_cycle;Max_cycle;Signal;HPM_P1;HPM_P2
2021/04/17 00:02:05;;;;;;;14.20;4.60;;;6.90;64.50;;;;;;5056411;28;20028;-78
2021/04/17 00:04:32;;;;;;;10.93;3.90;;;6.90;65.10;;;;;;5055147;28;20115;-77
2021/04/17 00:06:58;;;;;;;10.37;4.37;;;6.90;65.00;;;;;;5056339;28;20096;-77
2021/04/17 00:09:27;;;;;;;12.63;4.73;;;7.00;65.50;;;;;;5056227;28;20025;-77
2021/04/17 00:11:56;;;;;;;10.60;4.33;;;6.90;65.60;;;;;;5055124;28;20113;-77
2021/04/17 00:14:25;;;;;;;9.67;4.00;;;6.80;65.70;;;;;;5056331;28;20029;-77
2021/04/17 00:16:51;;;;;;;10.50;4.27;;;6.80;66.00;;;;;;5038363;28;20021;-78
2021/04/17 00:19:17;;;;;;;11.17;3.90;;;6.70;65.60;;;;;;5038450;28;20070;-78
2021/04/17 00:21:42;;;;;;;9.97;4.57;;;6.70;65.50;;;;;;5056079;28;20380;-78
2021/04/17 00:24:08;;;;;;;8.83;3.77;;;6.70;65.70;;;;;;5056199;28;20033;-77
2021/04/17 00:26:34;;;;;;;11.50;4.13;;;6.70;65.70;;;;;;5056202;28;20361;-78
2021/04/17 00:29:01;;;;;;;11.50;4.23;;;6.60;65.50;;;;;;5038527;28;20044;-77
2021/04/17 00:31:28;;;;;;;10.20;4.23;;;6.60;65.50;;;;;;5056108;28;20503;-77
2021/04/17 00:33:53;;;;;;;10.00;4.03;;;6.60;65.50;;;;;;5056061;28;20033;-78
2021/04/17 00:36:19;;;;;;;10.77;3.97;;;6.50;65.90;;;;;;5021727;28;20387;-77
2021/04/17 00:38:45;;;;;;;10.97;4.77;;;6.50;66.40;;;;;;5038228;28;20029;-77
2021/04/17 00:41:10;;;;;;;10.57;3.73;;;6.50;65.90;;;;;;5021746;28;20033;-78
2021/04/17 00:43:36;;;;;;;11.00;3.53;;;6.40;66.60;;;;;;5055955;28;20382;-77
2021/04/17 00:46:02;;;;;;;10.80;3.83;;;6.40;66.00;;;;;;5055279;28;20098;-78
2021/04/17 00:48:28;;;;;;;9.27;3.70;;;6.40;66.20;;;;;;5055347;28;20045;-73
2021/04/17 00:50:54;;;;;;;9.77;3.73;;;6.30;66.30;;;;;;5055649;28;20041;-73
2021/04/17 00:53:20;;;;;;;8.43;4.00;;;6.30;66.40;;;;;;5037839;28;20036;-73
2021/04/17 00:55:45;;;;;;;11.40;4.40;;;6.30;66.60;;;;;;5037929;28;20064;-73
2021/04/17 00:58:11;;;;;;;11.47;4.33;;;6.30;66.40;;;;;;5037614;28;20064;-73
2021/04/17 01:00:38;;;;;;;9.70;3.53;;;6.20;66.50;;;;;;5004856;28;20044;-72
2021/04/17 01:03:26;;;;;;;11.20;3.77;;;6.20;66.80;;;;;;5021107;28;20480;-77
2021/04/17 01:05:57;;;;;;;8.93;3.63;;;6.20;66.50;;;;;;5037429;28;20021;-77
2021/04/17 01:08:33;;;;;;;9.60;3.13;;;6.20;67.20;;;;;;5055381;28;20025;-76
2021/04/17 01:11:04;;;;;;;9.50;4.37;;;6.10;67.70;;;;;;5053874;28;20055;-77
2021/04/17 01:13:30;;;;;;;13.03;4.17;;;6.10;67.60;;;;;;5037243;28;20032;-76
2021/04/17 01:15:57;;;;;;;11.67;4.23;;;6.10;68.00;;;;;;5037260;28;20063;-77
2021/04/17 01:18:24;;;;;;;11.00;3.77;;;6.10;67.90;;;;;;5037385;28;20519;-76
2021/04/17 01:20:52;;;;;;;9.87;3.47;;;6.00;68.30;;;;;;5055492;28;20039;-77
2021/04/17 01:23:32;;;;;;;10.40;4.00;;;6.00;68.20;;;;;;5037206;28;20056;-77
2021/04/17 01:26:02;;;;;;;10.77;3.87;;;6.00;68.30;;;;;;5055590;28;20033;-77
2021/04/17 01:28:31;;;;;;;10.53;4.17;;;5.90;68.60;;;;;;5037441;28;20094;-77
2021/04/17 01:30:59;;;;;;;8.93;3.90;;;5.90;69.20;;;;;;5055584;28;20442;-73
2021/04/17 01:33:28;;;;;;;8.07;3.67;;;5.80;68.80;;;;;;5055100;28;20102;-72
2021/04/17 01:35:57;;;;;;;13.27;4.00;;;5.80;68.70;;;;;;5055027;28;20480;-72
2021/04/17 01:38:30;;;;;;;8.37;3.57;;;5.80;69.20;;;;;;5054804;28;20032;-73
2021/04/17 01:41:06;;;;;;;12.18;4.05;;;5.70;69.90;;;;;;5036887;28;20025;-72
2021/04/17 01:43:32;;;;;;;8.57;3.50;;;5.70;69.80;;;;;;5054725;28;20043;-73
2021/04/17 01:46:11;;;;;;;12.57;3.70;;;5.70;70.40;;;;;;5054756;28;20448;-72
2021/04/17 01:48:38;;;;;;;8.67;3.20;;;5.60;70.40;;;;;;5036741;28;20115;-73
2021/04/17 01:51:05;;;;;;;11.33;3.50;;;5.60;70.10;;;;;;5054736;28;20096;-73
2021/04/17 01:53:32;;;;;;;9.77;3.90;;;5.60;70.10;;;;;;5054839;28;20025;-73
2021/04/17 01:55:59;;;;;;;9.47;3.50;;;5.60;71.30;;;;;;5036254;28;20036;-72
2021/04/17 01:58:28;;;;;;;11.67;3.50;;;5.50;70.80;;;;;;5019538;28;20488;-73
2021/04/17 02:00:56;;;;;;;14.13;4.03;;;5.50;71.20;;;;;;5054217;28;20075;-75
2021/04/17 02:03:22;;;;;;;8.57;3.33;;;5.50;71.40;;;;;;5036295;28;20107;-72
2021/04/17 02:05:53;;;;;;;14.43;4.63;;;5.40;71.10;;;;;;5020107;28;20025;-73
2021/04/17 02:08:19;;;;;;;9.20;2.97;;;5.40;71.30;;;;;;5036629;28;20025;-72
2021/04/17 02:10:48;;;;;;;10.50;3.77;;;5.50;71.40;;;;;;5036126;28;20477;-72
2021/04/17 02:13:14;;;;;;;13.10;3.20;;;5.40;71.10;;;;;;5036397;28;20025;-72
2021/04/17 02:15:41;;;;;;;8.80;3.40;;;5.30;70.80;;;;;;5036704;28;20021;-72
2021/04/17 02:18:24;;;;;;;10.03;3.80;;;5.30;71.20;;;;;;5020037;28;20120;-72
2021/04/17 02:21:01;;;;;;;10.37;3.40;;;5.30;70.80;;;;;;5036048;28;20104;-72
2021/04/17 02:23:28;;;;;;;10.63;3.27;;;5.30;71.10;;;;;;5053812;28;20565;-73
2021/04/17 02:25:58;;;;;;;11.93;3.33;;;5.30;71.80;;;;;;5053977;28;20032;-72
2021/04/17 02:28:26;;;;;;;7.47;3.87;;;5.20;71.40;;;;;;5019419;28;20488;-73
2021/04/17 02:30:51;;;;;;;5.97;2.47;;;5.20;71.90;;;;;;5035652;28;20052;-73
2021/04/17 02:33:17;;;;;;;9.00;3.33;;;5.20;71.70;;;;;;5035712;28;20060;-72
2021/04/17 02:35:43;;;;;;;7.63;3.47;;;5.20;71.30;;;;;;5019381;28;20032;-73
2021/04/17 02:38:08;;;;;;;8.87;3.10;;;5.20;71.60;;;;;;5035833;28;20033;-72
2021/04/17 02:40:34;;;;;;;9.67;3.10;;;5.10;71.30;;;;;;5036079;28;20091;-72
2021/04/17 02:43:00;;;;;;;9.50;3.13;;;5.10;71.40;;;;;;5035787;28;20168;-73
2021/04/17 02:45:26;;;;;;;12.47;3.03;;;5.10;71.20;;;;;;5035964;28;20068;-73
2021/04/17 02:47:52;;;;;;;8.97;3.40;;;5.10;71.30;;;;;;5019420;28;20060;-72
2021/04/17 02:50:19;;;;;;;10.43;3.00;;;5.00;71.50;;;;;;5035541;28;20091;-73
2021/04/17 02:52:45;;;;;;;7.93;3.30;;;5.00;71.40;;;;;;5036294;28;20029;-73
2021/04/17 02:55:11;;;;;;;9.37;3.13;;;4.90;71.40;;;;;;5053480;28;20120;-73
2021/04/17 02:57:36;;;;;;;13.37;3.63;;;4.90;71.50;;;;;;5018817;28;20025;-73
2021/04/17 03:00:06;;;;;;;9.97;3.03;;;4.90;71.90;;;;;;5019175;28;20135;-72
2021/04/17 03:02:31;;;;;;;10.20;3.80;;;4.80;72.30;;;;;;5035244;28;20043;-73
2021/04/17 03:04:57;;;;;;;7.67;3.37;;;4.80;72.70;;;;;;5053466;28;20025;-73
2021/04/17 03:07:22;;;;;;;12.60;3.77;;;4.80;73.40;;;;;;5053174;28;20029;-73
2021/04/17 03:09:48;;;;;;;11.00;3.87;;;4.80;73.60;;;;;;5036935;28;20036;-72
2021/04/17 03:12:14;;;;;;;9.60;3.40;;;4.80;74.00;;;;;;5051629;28;20037;-72
2021/04/17 03:14:41;;;;;;;12.47;3.73;;;4.80;74.10;;;;;;5041575;28;20524;-72
2021/04/17 03:17:07;;;;;;;8.80;3.40;;;4.80;74.20;;;;;;5051549;28;20111;-74
2021/04/17 03:19:33;;;;;;;11.07;3.90;;;4.70;74.30;;;;;;5035152;28;20033;-74
2021/04/17 03:21:58;;;;;;;8.70;3.83;;;4.70;75.10;;;;;;5002405;28;20032;-74
2021/04/17 03:24:24;;;;;;;8.93;3.20;;;4.80;74.60;;;;;;5035454;28;20435;-74
2021/04/17 03:26:50;;;;;;;10.27;3.70;;;4.70;75.40;;;;;;5002205;28;20067;-74
2021/04/17 03:29:16;;;;;;;8.03;3.20;;;4.70;75.50;;;;;;5052910;28;20469;-74
2021/04/17 03:31:42;;;;;;;8.13;3.67;;;4.70;74.80;;;;;;5035021;28;20467;-74
2021/04/17 03:34:08;;;;;;;8.73;3.30;;;4.70;74.70;;;;;;5052667;28;20087;-74
2021/04/17 03:36:33;;;;;;;7.67;3.13;;;4.70;74.70;;;;;;5052694;28;20036;-74
2021/04/17 03:38:59;;;;;;;9.33;2.90;;;4.70;74.60;;;;;;5034875;28;20037;-74
2021/04/17 03:41:25;;;;;;;9.10;3.30;;;4.70;74.90;;;;;;5018812;28;20437;-74
2021/04/17 03:43:50;;;;;;;8.27;3.30;;;4.60;75.00;;;;;;5034813;28;20029;-74
2021/04/17 03:46:16;;;;;;;8.27;3.43;;;4.70;75.30;;;;;;5002176;28;20022;-74
2021/04/17 03:48:41;;;;;;;10.37;3.13;;;4.60;75.00;;;;;;5018560;28;20022;-74
2021/04/17 03:51:07;;;;;;;10.23;3.50;;;4.60;75.00;;;;;;5011927;28;20416;-74
2021/04/17 03:53:33;;;;;;;7.63;2.53;;;4.60;75.00;;;;;;5011977;28;20034;-74
2021/04/17 03:55:59;;;;;;;11.43;2.83;;;4.60;75.20;;;;;;5021893;28;20040;-75
2021/04/17 03:58:24;;;;;;;11.23;3.10;;;4.60;75.20;;;;;;5013727;28;20022;-75
2021/04/17 04:00:50;;;;;;;9.53;3.23;;;4.60;75.10;;;;;;5019356;28;20050;-73
2021/04/17 04:03:16;;;;;;;13.73;3.30;;;4.60;75.30;;;;;;5011658;28;20038;-72
2021/04/17 04:05:42;;;;;;;9.27;3.57;;;4.50;75.30;;;;;;4995100;28;20096;-72
2021/04/17 04:08:07;;;;;;;8.33;3.17;;;4.50;75.50;;;;;;4995259;28;20030;-73
2021/04/17 04:10:33;;;;;;;8.20;3.20;;;4.50;75.60;;;;;;5012881;28;20485;-73
2021/04/17 04:12:59;;;;;;;12.53;2.93;;;4.50;75.70;;;;;;5011900;28;20034;-73
2021/04/17 04:15:24;;;;;;;11.27;2.93;;;4.50;75.90;;;;;;5012309;28;20038;-73
2021/04/17 04:17:50;;;;;;;7.43;2.87;;;4.50;75.90;;;;;;5012917;28;20125;-73
2021/04/17 04:20:15;;;;;;;9.83;2.53;;;4.40;76.00;;;;;;5014301;28;20038;-73
2021/04/17 04:22:41;;;;;;;9.17;3.03;;;4.40;76.70;;;;;;5015642;28;20108;-73
2021/04/17 04:25:09;;;;;;;6.10;2.87;;;4.40;76.20;;;;;;5015421;28;20450;-73
2021/04/17 04:27:36;;;;;;;11.47;3.67;;;4.40;76.50;;;;;;4999252;28;20346;-73
2021/04/17 04:30:03;;;;;;;9.60;2.43;;;4.40;76.40;;;;;;4999153;28;20065;-74
2021/04/17 04:32:28;;;;;;;8.93;3.00;;;4.40;76.40;;;;;;5014945;28;20030;-73
2021/04/17 04:34:54;;;;;;;6.93;3.03;;;4.40;76.50;;;;;;4998891;28;20358;-72
2021/04/17 04:37:19;;;;;;;9.33;3.40;;;4.40;76.60;;;;;;5016329;28;20022;-72
2021/04/17 04:39:45;;;;;;;9.00;3.60;;;4.40;76.70;;;;;;5016339;28;20045;-73
2021/04/17 04:42:11;;;;;;;7.57;2.37;;;4.40;76.90;;;;;;5015335;28;20033;-73
2021/04/17 04:44:37;;;;;;;8.70;3.20;;;4.40;77.00;;;;;;5014886;28;20417;-73
2021/04/17 04:47:03;;;;;;;8.30;3.57;;;4.50;77.20;;;;;;5014707;28;20474;-72
2021/04/17 04:49:29;;;;;;;7.20;2.73;;;4.50;77.30;;;;;;5021395;28;20057;-73
2021/04/17 04:51:54;;;;;;;9.67;3.10;;;4.50;77.10;;;;;;5034638;28;20088;-73
2021/04/17 04:54:21;;;;;;;12.53;3.57;;;4.50;77.10;;;;;;5034892;28;20041;-72
2021/04/17 04:56:46;;;;;;;8.80;2.97;;;4.50;77.30;;;;;;5034425;28;20543;-73
2021/04/17 04:59:12;;;;;;;8.60;3.67;;;4.50;77.20;;;;;;5034285;28;20029;-73
2021/04/17 05:01:37;;;;;;;9.03;3.03;;;4.40;77.20;;;;;;5019596;28;20033;-73
2021/04/17 05:04:03;;;;;;;9.73;3.17;;;4.40;77.10;;;;;;5016880;28;20034;-73
2021/04/17 05:06:29;;;;;;;8.80;3.37;;;4.40;77.00;;;;;;5033688;28;20033;-72
2021/04/17 05:08:54;;;;;;;9.47;3.23;;;4.40;77.20;;;;;;5034734;28;20025;-73
2021/04/17 05:11:20;;;;;;;10.20;3.70;;;4.40;77.40;;;;;;5017557;28;20052;-73
2021/04/17 05:13:46;;;;;;;7.30;3.53;;;4.30;78.00;;;;;;5017832;28;20496;-73
2021/04/17 05:16:13;;;;;;;10.03;3.17;;;4.40;77.60;;;;;;5033624;28;20029;-73
2021/04/17 05:18:39;;;;;;;8.93;2.77;;;4.30;77.50;;;;;;5035381;28;20389;-73
2021/04/17 05:21:04;;;;;;;12.13;3.40;;;4.30;77.50;;;;;;5035182;28;20067;-74
2021/04/17 05:23:30;;;;;;;10.03;2.97;;;4.30;77.50;;;;;;5033637;28;20030;-73
2021/04/17 05:25:56;;;;;;;13.67;3.27;;;4.40;77.70;;;;;;5051694;28;20041;-74
2021/04/17 05:28:21;;;;;;;8.63;2.80;;;4.40;77.70;;;;;;5053810;28;20040;-73
2021/04/17 05:30:47;;;;;;;6.87;2.77;;;4.40;77.80;;;;;;5046611;28;20038;-74
2021/04/17 05:33:12;;;;;;;8.03;2.90;;;4.40;78.00;;;;;;5039986;28;20083;-74
2021/04/17 05:35:38;;;;;;;9.27;3.23;;;4.40;78.30;;;;;;5034083;28;20484;-73
2021/04/17 05:38:04;;;;;;;10.83;3.00;;;4.40;78.20;;;;;;5050196;28;20461;-74
2021/04/17 05:40:29;;;;;;;8.10;3.13;;;4.40;78.40;;;;;;5036893;28;20037;-74
2021/04/17 05:42:55;;;;;;;9.37;3.50;;;4.40;78.50;;;;;;5036181;28;20032;-74
2021/04/17 05:45:21;;;;;;;9.93;2.87;;;4.50;78.70;;;;;;5052631;28;20025;-74
2021/04/17 05:47:47;;;;;;;6.77;3.00;;;4.50;78.90;;;;;;5054750;28;20029;-73
2021/04/17 05:50:12;;;;;;;8.40;2.70;;;4.50;79.40;;;;;;5036005;28;20079;-74
2021/04/17 05:52:38;;;;;;;9.10;2.83;;;4.50;79.40;;;;;;5052570;28;20107;-74
2021/04/17 05:55:05;;;;;;;9.60;3.03;;;4.60;79.40;;;;;;5053513;28;20490;-74
2021/04/17 05:57:31;;;;;;;11.73;3.33;;;4.60;79.30;;;;;;5053288;28;20396;-73
2021/04/17 05:59:56;;;;;;;9.10;2.83;;;4.70;80.60;;;;;;5036208;28;20029;-73
2021/04/17 06:02:23;;;;;;;9.33;3.60;;;4.70;80.40;;;;;;5052942;28;20179;-73
2021/04/17 06:04:49;;;;;;;6.77;2.90;;;4.80;81.30;;;;;;5036915;28;20048;-73
2021/04/17 06:07:15;;;;;;;10.43;3.60;;;4.80;80.70;;;;;;5036663;28;20120;-73
2021/04/17 06:09:40;;;;;;;7.53;2.93;;;4.90;80.70;;;;;;5063073;28;20033;-74
2021/04/17 06:12:06;;;;;;;7.30;2.87;;;4.90;81.10;;;;;;5073490;28;20110;-74
2021/04/17 06:14:32;;;;;;;6.80;3.27;;;4.90;80.90;;;;;;5038816;28;20033;-74
2021/04/17 06:16:57;;;;;;;8.50;3.27;;;4.90;81.20;;;;;;5036067;28;20028;-73
2021/04/17 06:19:23;;;;;;;8.83;2.67;;;5.00;81.70;;;;;;5053671;28;20044;-73
2021/04/17 06:21:49;;;;;;;7.60;3.10;;;5.00;82.10;;;;;;5052639;28;20491;-74
2021/04/17 06:24:14;;;;;;;8.40;2.93;;;5.10;81.70;;;;;;5036021;28;20029;-73
2021/04/17 06:26:41;;;;;;;7.33;2.97;;;5.10;81.50;;;;;;5035876;28;20028;-73
2021/04/17 06:29:07;;;;;;;9.93;3.07;;;5.20;81.60;;;;;;5020202;28;20031;-73
2021/04/17 06:31:33;;;;;;;5.43;2.43;;;5.40;81.30;;;;;;5052717;28;20100;-73
2021/04/17 06:33:58;;;;;;;8.30;3.17;;;5.30;81.40;;;;;;5052712;28;20032;-73
2021/04/17 06:36:24;;;;;;;7.03;3.00;;;5.30;81.40;;;;;;5053614;28;20051;-73
2021/04/17 06:38:50;;;;;;;7.90;2.90;;;5.40;81.20;;;;;;5052744;28;20031;-73
2021/04/17 06:41:18;;;;;;;8.03;3.00;;;5.40;81.60;;;;;;5053811;28;20052;-73
2021/04/17 06:43:44;;;;;;;8.40;2.80;;;5.40;81.50;;;;;;5052088;28;20021;-73
2021/04/17 06:46:14;;;;;;;7.40;3.10;;;5.50;81.20;;;;;;5052352;28;20127;-73
2021/04/17 06:48:40;;;;;;;8.27;2.80;;;5.70;81.50;;;;;;5053809;28;20449;-74
2021/04/17 06:51:13;;;;;;;13.20;3.77;;;5.60;81.50;;;;;;5052307;28;20037;-74
2021/04/17 06:53:40;;;;;;;8.47;3.27;;;5.60;81.80;;;;;;5053612;28;20021;-74
2021/04/17 06:56:06;;;;;;;9.77;2.93;;;5.70;82.00;;;;;;5052147;28;20112;-73
2021/04/17 06:58:31;;;;;;;9.37;3.30;;;5.80;81.60;;;;;;5053725;28;20060;-74
2021/04/17 07:00:59;;;;;;;7.57;2.30;;;5.80;81.60;;;;;;5052072;28;20041;-74
2021/04/17 07:03:24;;;;;;;12.90;2.97;;;5.90;81.40;;;;;;5053565;28;20037;-74
2021/04/17 07:05:50;;;;;;;7.77;3.20;;;6.00;81.30;;;;;;5053566;28;20043;-74
2021/04/17 07:08:16;;;;;;;8.07;2.30;;;6.00;81.00;;;;;;5018967;28;20045;-74
2021/04/17 07:10:42;;;;;;;7.57;2.47;;;6.10;81.40;;;;;;5051811;28;20431;-73
2021/04/17 07:13:10;;;;;;;10.40;2.53;;;6.10;81.40;;;;;;5052299;28;20090;-73
2021/04/17 07:15:36;;;;;;;10.03;2.20;;;6.20;81.00;;;;;;5051949;28;20031;-73
2021/04/17 07:18:27;;;;;;;7.77;2.03;;;6.20;80.80;;;;;;5052145;28;20051;-73
2021/04/17 07:20:58;;;;;;;6.40;2.43;;;6.40;81.00;;;;;;5053186;28;20028;-73
2021/04/17 07:23:29;;;;;;;7.10;2.37;;;6.40;80.80;;;;;;5053078;28;20060;-73
2021/04/17 07:26:07;;;;;;;10.53;2.27;;;6.50;80.60;;;;;;5051841;28;20029;-73
2021/04/17 07:28:35;;;;;;;8.73;2.20;;;6.50;80.30;;;;;;5051515;28;20036;-73
2021/04/17 07:31:01;;;;;;;6.97;2.17;;;6.60;80.30;;;;;;5051512;28;20476;-78
2021/04/17 07:33:30;;;;;;;7.93;2.23;;;6.70;80.00;;;;;;5051740;28;20037;-78
2021/04/17 07:35:56;;;;;;;10.40;1.87;;;6.80;79.80;;;;;;5052804;28;20074;-78
2021/04/17 07:38:25;;;;;;;10.23;2.20;;;6.90;79.60;;;;;;5051841;28;20453;-78
2021/04/17 07:41:17;;;;;;;4.43;1.70;;;6.90;79.40;;;;;;5051190;28;20107;-78
2021/04/17 07:43:54;;;;;;;5.07;1.60;;;7.00;79.20;;;;;;5043640;28;20108;-78
2021/04/17 07:46:29;;;;;;;6.07;1.87;;;7.10;78.80;;;;;;5042305;28;20026;-78
2021/04/17 07:49:19;;;;;;;7.03;1.80;;;7.20;78.50;;;;;;5047771;28;20107;-78
2021/04/17 07:52:08;;;;;;;5.43;1.00;;;7.30;77.00;;;;;;5037824;28;20020;-78
2021/04/17 07:54:34;;;;;;;8.87;1.53;;;7.40;76.50;;;;;;5080827;28;20498;-78
2021/04/17 07:57:09;;;;;;;6.37;1.70;;;7.50;75.80;;;;;;5077664;28;20032;-78
2021/04/17 07:59:36;;;;;;;8.17;1.50;;;7.60;75.60;;;;;;5076603;28;20103;-78
2021/04/17 08:02:02;;;;;;;9.50;1.50;;;7.70;75.40;;;;;;5076546;28;20024;-78
2021/04/17 08:04:29;;;;;;;4.40;1.27;;;7.80;74.50;;;;;;5076395;28;20036;-78
2021/04/17 08:06:57;;;;;;;2.53;0.90;;;7.80;74.30;;;;;;5076429;28;20098;-78
2021/04/17 08:09:24;;;;;;;6.80;1.57;;;7.90;74.00;;;;;;5076243;28;20444;-78
2021/04/17 08:11:58;;;;;;;5.23;2.03;;;8.00;73.70;;;;;;5058212;28;20498;-78
2021/04/17 08:14:26;;;;;;;4.63;1.67;;;8.10;73.20;;;;;;5076340;28;20033;-78
2021/04/17 08:16:52;;;;;;;12.07;1.80;;;8.20;73.20;;;;;;5076257;28;20033;-78
2021/04/17 08:19:19;;;;;;;7.70;1.57;;;8.30;72.90;;;;;;5076118;28;20036;-78
2021/04/17 08:21:46;;;;;;;4.60;1.10;;;8.40;72.70;;;;;;5067475;28;20027;-78
2021/04/17 08:24:13;;;;;;;4.33;1.23;;;8.40;71.90;;;;;;5082985;28;20032;-78
2021/04/17 08:26:40;;;;;;;4.90;1.10;;;8.50;71.70;;;;;;5058225;28;20028;-77
2021/04/17 08:29:06;;;;;;;3.20;1.00;;;8.60;70.90;;;;;;5057890;28;20099;-78
2021/04/17 08:31:36;;;;;;;6.07;1.20;;;8.60;69.60;;;;;;5076026;28;20113;-78
2021/04/17 08:34:16;;;;;;;6.10;0.93;;;8.70;68.10;;;;;;5075748;28;20029;-77
2021/04/17 08:36:44;;;;;;;3.73;1.20;;;8.80;66.80;;;;;;5058060;28;20031;-78
2021/04/17 08:39:36;;;;;;;5.83;0.97;;;8.90;65.80;;;;;;5075957;28;20024;-77
2021/04/17 08:42:03;;;;;;;4.20;0.83;;;9.00;65.70;;;;;;5062328;28;20124;-77
2021/04/17 08:44:32;;;;;;;4.37;0.80;;;9.10;64.90;;;;;;5075543;28;20036;-78
2021/04/17 08:46:59;;;;;;;2.47;0.70;;;9.20;65.30;;;;;;5075914;28;20025;-78
2021/04/17 08:49:30;;;;;;;3.50;0.87;;;9.20;65.20;;;;;;5075593;28;20090;-77
2021/04/17 08:52:22;;;;;;;5.23;1.00;;;9.40;63.90;;;;;;5057865;28;20020;-77
2021/04/17 08:55:08;;;;;;;4.53;0.90;;;9.50;63.50;;;;;;5048517;28;20060;-77
2021/04/17 08:57:34;;;;;;;3.93;0.80;;;9.60;63.70;;;;;;5055376;28;20021;-78
2021/04/17 09:00:01;;;;;;;4.00;0.90;;;9.70;63.40;;;;;;5061211;28;20024;-77
2021/04/17 09:02:28;;;;;;;4.70;1.00;;;9.70;62.20;;;;;;5066423;28;20051;-78
2021/04/17 09:05:12;;;;;;;2.87;0.80;;;9.90;62.10;;;;;;5077664;28;20418;-77
2021/04/17 09:07:41;;;;;;;5.57;0.90;;;9.90;61.10;;;;;;5095323;28;20024;-78
2021/04/17 09:10:22;;;;;;;4.43;1.10;;;10.00;59.40;;;;;;5067557;28;20024;-78
2021/04/17 09:13:14;;;;;;;5.90;1.13;;;10.10;58.60;;;;;;5078967;28;20020;-77
2021/04/17 09:15:52;;;;;;;6.80;1.30;;;10.20;58.00;;;;;;5055058;28;20046;-78
2021/04/17 09:18:36;;;;;;;4.10;1.00;;;10.30;57.90;;;;;;5055382;28;20036;-77
2021/04/17 09:21:04;;;;;;;4.25;0.90;;;10.40;58.00;;;;;;5054096;28;20025;-77
2021/04/17 09:23:50;;;;;;;4.50;1.00;;;10.40;57.40;;;;;;5074533;28;20069;-78
2021/04/17 09:26:31;;;;;;;6.80;1.17;;;10.50;56.70;;;;;;5095068;28;20044;-78
2021/04/17 09:29:02;;;;;;;6.53;1.20;;;10.60;56.90;;;;;;5095701;28;20102;-79
2021/04/17 09:31:37;;;;;;;6.27;1.33;;;10.70;56.80;;;;;;5095469;28;20055;-77
2021/04/17 09:34:14;;;;;;;8.20;1.40;;;10.80;55.60;;;;;;5095347;28;20033;-77
2021/04/17 09:36:39;;;;;;;3.40;1.00;;;10.90;55.60;;;;;;5077042;28;20055;-77
2021/04/17 09:39:24;;;;;;;6.33;1.17;;;11.00;55.50;;;;;;5060369;28;20064;-77
2021/04/17 09:41:50;;;;;;;;;;;11.10;55.80;;;;;;5095464;28;20031;-77
2021/04/17 09:44:17;;;;;;;4.73;1.20;;;11.20;55.40;;;;;;5094739;28;20355;-78
2021/04/17 09:46:42;;;;;;;5.60;1.10;;;11.30;55.70;;;;;;5094784;28;20517;-79
2021/04/17 09:49:08;;;;;;;7.70;1.50;;;11.40;55.00;;;;;;5094552;28;20036;-78
2021/04/17 09:51:34;;;;;;;5.83;1.37;;;11.50;55.20;;;;;;5094925;28;20074;-79
2021/04/17 09:54:02;;;;;;;5.27;1.10;;;11.50;55.20;;;;;;5067877;28;20029;-78
2021/04/17 09:56:34;;;;;;;4.60;1.33;;;11.50;54.80;;;;;;5054521;28;20082;-78
2021/04/17 09:59:06;;;;;;;4.47;1.20;;;11.70;54.50;;;;;;5054221;28;20384;-78
2021/04/17 10:01:32;;;;;;;6.38;1.08;;;11.90;54.10;;;;;;5054348;28;20021;-78
2021/04/17 10:04:00;;;;;;;4.80;1.05;;;11.90;54.00;;;;;;5054321;28;20083;-78
2021/04/17 10:06:31;;;;;;;7.50;1.20;;;12.10;53.90;;;;;;5004026;28;20017;-77
2021/04/17 10:09:12;;;;;;;4.70;0.90;;;12.30;53.50;;;;;;5066553;28;20028;-77
2021/04/17 10:11:40;;;;;;;7.45;1.27;;;12.60;53.50;;;;;;5040220;28;20509;-77
2021/04/17 10:14:08;;;;;;;4.75;1.50;;;12.90;52.80;;;;;;5076136;28;20039;-77
2021/04/17 10:16:36;;;;;;;5.43;1.40;;;13.00;52.60;;;;;;5073662;28;20024;-77
2021/04/17 10:19:04;;;;;;;7.05;1.00;;;13.20;52.90;;;;;;5073323;28;20497;-77
2021/04/17 10:21:34;;;;;;;4.18;0.93;;;13.50;53.00;;;;;;5073051;28;20082;-77
2021/04/17 10:24:20;;;;;;;5.80;1.30;;;13.90;53.20;;;;;;5075282;28;20028;-77
2021/04/17 10:26:58;;;;;;;4.80;1.05;;;14.70;51.90;;;;;;5051809;28;20158;-77
2021/04/17 10:29:49;;;;;;;4.95;1.25;;;15.40;51.30;;;;;;5074612;28;20013;-77
2021/04/17 10:32:18;;;;;;;4.68;1.30;;;16.10;49.10;;;;;;5073622;28;20019;-78
2021/04/17 10:34:57;;;;;;;5.78;1.13;;;16.90;48.00;;;;;;5073946;28;20110;-78
2021/04/17 10:37:26;;;;;;;4.85;1.33;;;17.80;46.70;;;;;;5067313;28;20059;-77
2021/04/17 10:40:08;;;;;;;3.58;0.98;;;18.70;44.20;;;;;;5093772;28;20031;-78
2021/04/17 10:42:55;;;;;;;9.38;1.85;;;19.40;42.40;;;;;;5093927;28;20476;-78
2021/04/17 10:45:29;;;;;;;4.85;1.10;;;19.60;40.10;;;;;;5091210;28;20032;-77
2021/04/17 10:48:05;;;;;;;5.40;1.38;;;20.10;39.90;;;;;;5073419;28;20111;-78
2021/04/17 10:50:37;;;;;;;4.13;1.40;;;20.80;38.50;;;;;;5054963;28;20044;-78
2021/04/17 10:53:10;;;;;;;5.28;1.20;;;21.50;38.20;;;;;;5065429;28;20538;-78
2021/04/17 10:55:44;;;;;;;6.07;1.38;;;22.10;37.60;;;;;;5055830;28;20033;-78
2021/04/17 10:58:32;;;;;;;4.15;1.23;;;22.50;36.70;;;;;;5055630;28;20392;-78
2021/04/17 11:01:01;;;;;;;10.27;1.50;;;22.20;33.80;;;;;;5051849;28;20052;-77
2021/04/17 11:03:29;;;;;;;6.28;1.45;;;22.30;34.40;;;;;;5045797;28;20396;-78
2021/04/17 11:05:56;;;;;;;5.47;1.65;;;22.60;33.80;;;;;;5041855;28;20518;-78
2021/04/17 11:08:31;;;;;;;6.50;1.48;;;22.90;33.00;;;;;;5031644;28;20029;-78
2021/04/17 11:11:06;;;;;;;5.43;1.73;;;23.30;33.00;;;;;;5050742;28;20028;-78
2021/04/17 11:13:34;;;;;;;5.28;1.10;;;23.70;33.50;;;;;;5053035;28;20033;-80
2021/04/17 11:16:01;;;;;;;7.43;1.65;;;24.20;32.40;;;;;;5053070;28;20395;-80
2021/04/17 11:18:36;;;;;;;4.53;1.35;;;24.60;31.80;;;;;;5051415;28;20074;-78
2021/04/17 11:21:11;;;;;;;3.40;1.00;;;24.80;32.20;;;;;;5059969;28;20025;-77
2021/04/17 11:23:36;;;;;;;6.30;1.40;;;25.20;31.20;;;;;;5053802;28;20096;-77
2021/04/17 11:26:08;;;;;;;7.03;1.48;;;25.60;30.80;;;;;;5053069;28;20065;-78
2021/04/17 11:28:34;;;;;;;3.67;0.82;;;25.50;30.40;;;;;;5052902;28;20025;-77
2021/04/17 11:31:00;;;;;;;3.85;1.05;;;25.30;30.20;;;;;;5055392;28;20025;-78
2021/04/17 11:33:27;;;;;;;3.92;1.10;;;24.90;29.90;;;;;;5053050;28;20419;-76
2021/04/17 11:35:53;;;;;;;3.63;0.82;;;24.70;29.90;;;;;;5053110;28;20046;-76
2021/04/17 11:38:18;;;;;;;6.85;1.25;;;24.60;29.80;;;;;;5052976;28;20099;-77
2021/04/17 11:40:44;;;;;;;5.10;1.23;;;24.60;29.70;;;;;;5052983;28;20393;-77
2021/04/17 11:43:10;;;;;;;3.30;1.00;;;24.60;29.60;;;;;;5041086;28;20029;-77
2021/04/17 11:45:36;;;;;;;4.03;1.02;;;24.50;29.40;;;;;;5049576;28;20028;-77
2021/04/17 11:48:04;;;;;;;3.50;1.13;;;24.30;29.40;;;;;;5038685;28;20025;-77
2021/04/17 11:50:31;;;;;;;4.47;0.90;;;23.90;29.50;;;;;;5051178;28;20033;-77
2021/04/17 11:52:57;;;;;;;2.88;1.05;;;23.70;29.80;;;;;;5046043;28;20384;-76
2021/04/17 11:55:23;;;;;;;6.82;1.27;;;23.50;29.80;;;;;;5051214;28;20124;-77
2021/04/17 11:57:50;;;;;;;3.92;1.05;;;23.40;29.70;;;;;;5050949;28;20025;-77
2021/04/17 12:00:16;;;;;;;4.57;1.10;;;23.20;29.90;;;;;;5047446;28;20036;-78
2021/04/17 12:02:42;;;;;;;4.47;1.33;;;23.20;30.00;;;;;;5046064;28;20052;-77
2021/04/17 12:05:09;;;;;;;4.45;1.20;;;23.20;30.00;;;;;;5052473;28;20051;-77
2021/04/17 12:07:34;;;;;;;5.47;1.58;;;23.00;29.90;;;;;;5052764;28;20403;-77
2021/04/17 12:10:00;;;;;;;5.72;1.20;;;22.90;29.90;;;;;;5045924;28;20150;-77
2021/04/17 12:12:26;;;;;;;4.25;1.10;;;22.80;30.10;;;;;;5041250;28;20041;-77
2021/04/17 12:14:51;;;;;;;7.13;1.10;;;22.90;30.10;;;;;;5049313;28;20086;-77
2021/04/17 12:17:17;;;;;;;4.60;1.00;;;23.10;30.20;;;;;;5035721;28;20033;-77
2021/04/17 12:19:43;;;;;;;4.22;1.00;;;23.40;30.10;;;;;;5049857;28;20448;-77
2021/04/17 12:22:09;;;;;;;4.22;1.00;;;23.50;30.10;;;;;;5044026;28;20052;-76
2021/04/17 12:24:34;;;;;;;4.65;1.15;;;23.70;30.10;;;;;;5035607;28;20034;-76
2021/04/17 12:27:00;;;;;;;5.63;0.90;;;23.90;30.00;;;;;;5050647;28;20112;-77
2021/04/17 12:29:26;;;;;;;5.18;1.00;;;23.90;30.00;;;;;;5051003;28;20481;-77
2021/04/17 12:31:51;;;;;;;7.15;1.10;;;23.90;29.60;;;;;;5048006;28;20384;-77
2021/04/17 12:34:17;;;;;;;3.63;0.90;;;23.80;29.50;;;;;;5046289;28;20034;-77
2021/04/17 12:36:43;;;;;;;4.63;1.13;;;23.80;29.60;;;;;;5034443;28;20411;-77
2021/04/17 12:39:08;;;;;;;4.53;1.23;;;23.90;29.70;;;;;;5017266;28;20032;-77
2021/04/17 12:41:35;;;;;;;3.85;1.33;;;24.10;29.70;;;;;;5033613;28;20041;-77
2021/04/17 12:44:00;;;;;;;5.05;0.93;;;24.30;29.70;;;;;;5037283;28;20064;-77
2021/04/17 12:46:27;;;;;;;6.28;1.00;;;24.40;29.50;;;;;;5054619;28;20025;-77
2021/04/17 12:48:52;;;;;;;7.47;1.40;;;24.50;29.40;;;;;;5053211;28;20040;-77
2021/04/17 12:51:18;;;;;;;4.55;0.93;;;24.40;29.20;;;;;;5075822;28;20037;-78
2021/04/17 12:53:44;;;;;;;3.92;1.00;;;24.30;29.20;;;;;;5034452;28;20029;-78
2021/04/17 12:56:10;;;;;;;3.67;0.95;;;24.40;29.30;;;;;;5068323;28;20028;-77
2021/04/17 12:58:39;;;;;;;5.43;1.27;;;24.60;29.20;;;;;;5071044;28;20063;-78
2021/04/17 13:01:06;;;;;;;5.25;1.00;;;24.90;29.10;;;;;;5058886;28;20028;-78